Time;durP1;ratioP1;P1;durP2;ratioP2;P2;SDS_P1;SDS_P2;PMS_P1;PMS_P2;Temp;Humidity;BMP_temperature;BMP_pressure;BME280_temperature;BME280_humidity;BME280_pressure;Samples;Min_cycle;Max_cycle;Signal;HPM_P1;HPM_P2
2022/08/08 00:01:16;;;;;;;6.40;4.80;;;12.90;99.90;;;;;;5020966;28;20235;-75
2022/08/08 00:03:59;;;;;;;7.30;5.10;;;12.90;99.90;;;;;;5010388;28;20224;-75
2022/08/08 00:06:36;;;;;;;5.10;4.57;;;12.90;99.90;;;;;;5042840;28;20225;-75
2022/08/08 00:09:10;;;;;;;7.20;4.83;;;12.90;99.90;;;;;;5042962;28;20231;-75
2022/08/08 00:11:41;;;;;;;7.47;5.00;;;12.80;99.90;;;;;;5037006;28;20235;-75
2022/08/08 00:14:16;;;;;;;7.77;5.27;;;12.80;99.90;;;;;;5037321;28;20233;-75
2022/08/08 00:16:47;;;;;;;6.30;4.70;;;12.80;99.90;;;;;;5046384;28;20230;-75
2022/08/08 00:19:20;;;;;;;5.17;4.67;;;12.80;99.90;;;;;;5045179;28;20233;-75
2022/08/08 00:21:50;;;;;;;6.27;5.00;;;12.80;99.90;;;;;;5051856;28;20241;-75
2022/08/08 00:24:20;;;;;;;6.60;4.47;;;12.70;99.90;;;;;;5042433;28;20249;-75
2022/08/08 00:26:54;;;;;;;5.30;4.57;;;12.70;99.90;;;;;;5042960;28;20222;-74
2022/08/08 00:29:27;;;;;;;6.10;4.77;;;12.70;99.90;;;;;;5042543;28;20223;-74
2022/08/08 00:31:58;;;;;;;6.00;4.57;;;12.70;99.90;;;;;;5045723;28;20748;-73
2022/08/08 00:37:37;;;;;;;6.20;4.77;;;12.60;99.90;;;;;;5035725;28;20222;-75
2022/08/08 00:40:30;;;;;;;5.93;4.60;;;12.60;99.90;;;;;;5042965;28;20228;-75
2022/08/08 00:43:27;;;;;;;5.40;3.97;;;12.60;99.90;;;;;;5024813;28;20769;-75
2022/08/08 00:46:30;;;;;;;5.20;4.47;;;12.50;99.90;;;;;;5049122;28;20326;-74
2022/08/08 00:49:22;;;;;;;5.50;4.10;;;12.50;99.90;;;;;;5024920;28;20317;-74
2022/08/08 00:52:10;;;;;;;5.93;4.63;;;12.50;99.90;;;;;;5020339;28;20233;-74
2022/08/08 00:55:16;;;;;;;5.30;4.73;;;12.40;99.90;;;;;;5045054;28;20241;-74
2022/08/08 00:58:19;;;;;;;5.27;4.73;;;12.40;99.90;;;;;;5025372;28;20762;-74
2022/08/08 01:00:57;;;;;;;5.17;4.13;;;12.30;99.90;;;;;;5028515;28;20224;-74
2022/08/08 01:03:57;;;;;;;6.80;4.43;;;12.30;99.90;;;;;;5019835;28;20290;-75
2022/08/08 01:07:07;;;;;;;6.43;4.43;;;12.30;99.90;;;;;;5023404;28;20245;-74
2022/08/08 01:10:23;;;;;;;5.60;4.40;;;12.20;99.90;;;;;;5000844;28;20219;-74
2022/08/08 01:13:51;;;;;;;4.33;3.93;;;12.20;99.90;;;;;;5028442;28;20316;-74
2022/08/08 01:17:21;;;;;;;6.63;4.73;;;12.10;99.90;;;;;;4924481;28;20833;-74
2022/08/08 01:20:33;;;;;;;6.70;4.43;;;12.10;99.90;;;;;;5009771;28;20939;-74
2022/08/08 01:23:33;;;;;;;5.80;4.50;;;12.00;99.90;;;;;;5014875;28;20233;-74
2022/08/08 01:26:28;;;;;;;10.13;5.07;;;12.00;99.90;;;;;;5020824;28;20817;-74
2022/08/08 01:29:35;;;;;;;4.33;3.93;;;12.00;99.90;;;;;;5031283;28;20646;-74
2022/08/08 01:32:50;;;;;;;5.30;4.20;;;11.90;99.90;;;;;;5032323;28;20688;-74
2022/08/08 01:35:43;;;;;;;5.80;4.50;;;11.90;99.90;;;;;;5020502;28;20595;-75
2022/08/08 01:38:58;;;;;;;5.67;4.50;;;11.80;99.90;;;;;;5026867;28;20228;-74
2022/08/08 01:41:39;;;;;;;4.33;3.93;;;11.80;99.90;;;;;;5032166;28;20350;-74
2022/08/08 01:44:25;;;;;;;6.23;4.13;;;11.70;99.90;;;;;;5043511;28;20222;-74
2022/08/08 01:47:03;;;;;;;5.70;4.67;;;11.60;99.90;;;;;;5042817;28;20658;-74
2022/08/08 01:49:43;;;;;;;6.57;5.13;;;11.60;99.90;;;;;;5022189;28;20999;-74
2022/08/08 01:52:22;;;;;;;5.33;4.63;;;11.60;99.90;;;;;;5042096;28;20326;-74
2022/08/08 01:55:03;;;;;;;5.60;4.73;;;11.50;99.90;;;;;;5033220;28;20289;-74
2022/08/08 01:57:42;;;;;;;5.53;4.50;;;11.50;99.90;;;;;;5020382;28;20773;-73
2022/08/08 02:00:16;;;;;;;5.43;4.93;;;11.50;99.90;;;;;;5021241;28;20231;-74
2022/08/08 02:03:31;;;;;;;6.30;4.97;;;11.40;99.90;;;;;;5019214;28;20234;-73
2022/08/08 02:06:07;;;;;;;5.50;4.50;;;11.40;99.90;;;;;;5018704;28;20874;-74
2022/08/08 02:08:51;;;;;;;6.10;4.67;;;11.40;99.90;;;;;;5015634;28;20264;-73
2022/08/08 02:11:31;;;;;;;5.43;4.93;;;11.40;99.90;;;;;;5021092;28;20580;-73
2022/08/08 02:14:04;;;;;;;5.73;5.10;;;11.40;99.90;;;;;;5014070;28;20208;-73
2022/08/08 02:16:45;;;;;;;6.63;4.50;;;11.40;99.90;;;;;;5015638;28;20227;-73
2022/08/08 02:19:19;;;;;;;5.57;5.03;;;11.40;99.90;;;;;;5039807;28;20229;-74
2022/08/08 02:24:50;;;;;;;5.40;4.80;;;11.40;99.90;;;;;;5043307;28;20216;-74
2022/08/08 02:27:19;;;;;;;6.43;5.13;;;11.30;99.90;;;;;;5022989;28;20674;-75
2022/08/08 02:30:01;;;;;;;5.57;4.27;;;11.30;99.90;;;;;;5024839;28;20243;-74
2022/08/08 02:33:00;;;;;;;6.70;5.10;;;11.30;99.90;;;;;;5031769;28;20291;-74
2022/08/08 02:35:42;;;;;;;6.03;4.53;;;11.30;99.90;;;;;;5041900;28;20725;-74
2022/08/08 02:38:33;;;;;;;5.67;4.73;;;11.30;99.90;;;;;;5035758;28;20233;-75
2022/08/08 02:41:34;;;;;;;6.17;4.70;;;11.30;99.90;;;;;;5018909;28;20289;-75
2022/08/08 02:44:29;;;;;;;5.83;5.10;;;11.20;99.90;;;;;;5040190;28;20226;-74
2022/08/08 02:47:20;;;;;;;7.03;4.87;;;11.30;99.90;;;;;;5046620;28;20685;-74
2022/08/08 02:50:16;;;;;;;6.53;4.80;;;11.20;99.90;;;;;;5028343;28;20256;-74
2022/08/08 02:52:54;;;;;;;6.27;4.60;;;11.20;99.90;;;;;;5029800;28;20250;-74
2022/08/08 02:56:09;;;;;;;5.07;4.40;;;11.20;99.90;;;;;;5033992;28;20228;-74
2022/08/08 02:59:28;;;;;;;6.33;4.57;;;11.20;99.90;;;;;;5021486;28;20214;-74
2022/08/08 03:02:34;;;;;;;8.60;4.90;;;11.10;99.90;;;;;;5020291;28;20303;-74
2022/08/08 03:05:24;;;;;;;6.13;4.30;;;11.10;99.90;;;;;;5021639;28;20227;-74
2022/08/08 03:08:29;;;;;;;5.90;4.60;;;11.10;99.90;;;;;;5034937;28;20280;-74
2022/08/08 03:11:34;;;;;;;5.57;4.67;;;11.10;99.90;;;;;;5019763;28;20217;-74
2022/08/08 03:14:26;;;;;;;5.50;4.23;;;11.10;99.90;;;;;;5022043;28;20281;-74
2022/08/08 03:16:58;;;;;;;6.70;5.17;;;11.10;99.90;;;;;;5044850;28;20260;-74
2022/08/08 03:19:43;;;;;;;6.47;5.07;;;11.10;99.90;;;;;;5018398;28;20281;-74
2022/08/08 03:22:10;;;;;;;5.97;4.13;;;11.10;99.90;;;;;;5033404;28;20261;-74
2022/08/08 03:24:38;;;;;;;5.67;4.17;;;11.20;99.90;;;;;;5026933;28;20288;-74
2022/08/08 03:27:12;;;;;;;7.03;5.20;;;11.20;99.90;;;;;;5040821;28;20814;-74
2022/08/08 03:29:44;;;;;;;7.37;5.23;;;11.20;99.90;;;;;;5025425;28;20756;-74
2022/08/08 03:34:56;;;;;;;5.67;5.00;;;11.30;99.90;;;;;;5029518;28;20321;-74
2022/08/08 03:37:23;;;;;;;6.30;5.00;;;11.40;99.90;;;;;;5037201;28;20219;-74
2022/08/08 03:39:51;;;;;;;5.97;5.10;;;11.40;99.90;;;;;;5021281;28;20226;-74
2022/08/08 03:42:18;;;;;;;5.23;4.43;;;11.40;99.90;;;;;;5019095;28;20230;-74
2022/08/08 03:44:45;;;;;;;4.70;4.20;;;11.40;99.90;;;;;;5042125;28;20329;-74
2022/08/08 03:47:12;;;;;;;5.60;5.03;;;11.50;99.90;;;;;;5020323;28;20765;-76
2022/08/08 03:49:39;;;;;;;6.80;5.37;;;11.50;99.90;;;;;;5013928;28;20223;-73
2022/08/08 03:52:06;;;;;;;6.07;4.90;;;11.50;99.90;;;;;;5027694;28;20228;-73
2022/08/08 03:54:33;;;;;;;7.00;5.27;;;11.50;99.90;;;;;;5041515;28;20255;-73
2022/08/08 03:57:02;;;;;;;5.53;4.53;;;11.50;99.90;;;;;;5034015;28;20228;-73
2022/08/08 03:59:30;;;;;;;4.97;4.40;;;11.60;99.90;;;;;;5035523;28;20595;-74
2022/08/08 04:01:59;;;;;;;7.63;4.43;;;11.60;99.90;;;;;;5008244;28;20222;-74
2022/08/08 04:04:28;;;;;;;6.90;5.10;;;11.60;99.90;;;;;;5037245;28;20338;-74
2022/08/08 04:06:58;;;;;;;28.27;12.23;;;11.70;99.90;;;;;;5026824;28;20268;-74
2022/08/08 04:09:30;;;;;;;6.17;5.23;;;11.70;99.90;;;;;;5015992;28;20215;-75
2022/08/08 04:11:59;;;;;;;5.07;4.30;;;11.70;99.90;;;;;;5017115;28;20375;-74
2022/08/08 04:14:36;;;;;;;7.33;4.70;;;11.70;99.90;;;;;;5021705;28;20231;-74
2022/08/08 04:17:05;;;;;;;4.97;4.47;;;11.80;99.90;;;;;;5020624;28;20424;-74
2022/08/08 04:19:32;;;;;;;6.23;4.57;;;11.80;99.90;;;;;;5022841;28;20310;-75
2022/08/08 04:22:01;;;;;;;6.93;4.53;;;11.80;99.90;;;;;;5022736;28;20677;-76
2022/08/08 04:24:33;;;;;;;6.87;4.50;;;11.90;99.90;;;;;;5017838;28;20229;-75
2022/08/08 04:27:03;;;;;;;6.17;4.80;;;11.90;99.90;;;;;;5018835;28;20224;-75
2022/08/08 04:29:30;;;;;;;5.07;3.90;;;11.90;99.90;;;;;;5029578;28;20720;-75
2022/08/08 04:31:58;;;;;;;5.70;5.10;;;12.00;99.90;;;;;;5022777;28;20307;-74
2022/08/08 04:34:25;;;;;;;4.87;4.30;;;12.00;99.90;;;;;;5036897;28;20224;-75
2022/08/08 04:36:52;;;;;;;6.97;4.90;;;12.00;99.90;;;;;;5036466;28;20318;-75
2022/08/08 04:39:19;;;;;;;7.87;4.93;;;12.00;99.90;;;;;;5026669;28;20910;-74
2022/08/08 04:41:46;;;;;;;5.40;4.33;;;12.10;99.90;;;;;;5011505;28;20316;-76
2022/08/08 04:44:13;;;;;;;6.77;4.17;;;12.10;99.90;;;;;;5032116;28;20796;-75
2022/08/08 04:46:39;;;;;;;7.87;4.30;;;12.10;99.90;;;;;;5031732;28;20262;-75
2022/08/08 04:49:08;;;;;;;6.13;4.50;;;12.20;99.90;;;;;;5040322;28;20233;-74
2022/08/08 04:51:35;;;;;;;5.93;4.73;;;12.30;99.90;;;;;;5047132;28;20235;-75
2022/08/08 04:54:02;;;;;;;5.60;4.40;;;12.30;99.90;;;;;;5028688;28;20227;-74
2022/08/08 04:56:28;;;;;;;7.07;4.30;;;12.40;99.90;;;;;;5027427;28;20235;-75
2022/08/08 04:58:55;;;;;;;4.90;4.40;;;12.50;99.90;;;;;;5025407;28;20225;-74
2022/08/08 05:01:22;;;;;;;5.47;4.17;;;12.60;99.90;;;;;;5023645;28;20252;-74
2022/08/08 05:03:50;;;;;;;4.93;4.03;;;12.70;99.90;;;;;;5035743;28;20301;-75
2022/08/08 05:06:18;;;;;;;6.27;4.53;;;12.80;99.90;;;;;;5023004;28;20769;-75
2022/08/08 05:08:47;;;;;;;6.90;4.47;;;12.90;99.90;;;;;;5025248;28;20222;-75
2022/08/08 05:11:14;;;;;;;5.87;4.47;;;13.00;99.90;;;;;;5017436;28;20758;-75
2022/08/08 05:13:41;;;;;;;4.53;4.13;;;13.10;99.90;;;;;;5022503;28;20324;-75
2022/08/08 05:16:08;;;;;;;5.73;4.30;;;13.20;99.90;;;;;;5021561;28;20393;-75
2022/08/08 05:18:36;;;;;;;5.23;3.80;;;13.20;99.90;;;;;;5023059;28;20231;-75
2022/08/08 05:21:04;;;;;;;5.63;4.10;;;13.40;99.90;;;;;;5017718;28;20223;-75
2022/08/08 05:23:32;;;;;;;5.23;4.07;;;13.50;99.90;;;;;;5017090;28;20223;-75
2022/08/08 05:25:59;;;;;;;9.27;4.13;;;13.60;99.90;;;;;;5018071;28;20341;-75
2022/08/08 05:28:26;;;;;;;4.47;3.80;;;13.70;99.90;;;;;;5028919;28;20226;-75
2022/08/08 05:30:53;;;;;;;5.77;3.70;;;13.80;99.90;;;;;;5022735;28;20229;-75
2022/08/08 05:33:20;;;;;;;5.40;3.70;;;13.90;99.90;;;;;;5016481;28;20774;-75
2022/08/08 05:35:49;;;;;;;4.47;3.73;;;14.00;99.90;;;;;;5028232;28;20253;-75
2022/08/08 05:38:17;;;;;;;4.97;3.40;;;14.20;99.90;;;;;;5022948;28;20227;-75
2022/08/08 05:40:54;;;;;;;5.40;3.80;;;14.30;99.90;;;;;;5020244;28;20229;-75
2022/08/08 05:43:25;;;;;;;4.20;3.73;;;14.30;99.90;;;;;;5019665;28;20261;-75
2022/08/08 05:45:57;;;;;;;4.37;3.90;;;14.40;99.90;;;;;;5029801;28;20303;-75
2022/08/08 05:48:24;;;;;;;4.10;3.53;;;14.60;99.90;;;;;;5012991;28;20231;-75
2022/08/08 05:50:51;;;;;;;4.17;3.70;;;14.60;99.90;;;;;;5022599;28;20283;-75
2022/08/08 05:53:24;;;;;;;4.20;3.33;;;14.70;99.90;;;;;;5021680;28;20252;-75
2022/08/08 05:55:53;;;;;;;4.37;3.37;;;14.80;99.90;;;;;;5029338;28;20228;-75
2022/08/08 05:58:26;;;;;;;4.77;3.53;;;15.00;99.90;;;;;;5027573;28;20219;-76
2022/08/08 06:00:59;;;;;;;6.40;3.60;;;15.10;99.90;;;;;;5025831;28;20229;-75
2022/08/08 06:03:28;;;;;;;4.10;3.03;;;15.20;99.90;;;;;;5048316;28;20321;-75
2022/08/08 06:05:59;;;;;;;4.03;3.03;;;15.30;99.90;;;;;;5023746;28;20232;-76
2022/08/08 06:08:30;;;;;;;6.97;2.90;;;15.50;99.90;;;;;;5034029;23;20622;-91
2022/08/08 06:11:07;;;;;;;3.93;3.03;;;15.60;99.90;;;;;;5028868;28;20251;-93
2022/08/08 06:13:35;;;;;;;4.33;3.00;;;15.70;99.90;;;;;;5023529;28;20240;-91
2022/08/08 06:16:02;;;;;;;4.27;2.80;;;15.80;99.90;;;;;;5030085;28;20276;-91
2022/08/08 06:18:50;;;;;;;3.60;2.87;;;15.80;99.90;;;;;;5024058;28;20280;-91
2022/08/08 06:21:23;;;;;;;5.83;3.27;;;15.80;99.90;;;;;;5021873;28;20275;-91
2022/08/08 06:23:50;;;;;;;3.20;2.77;;;15.80;99.90;;;;;;5026003;28;20706;-90
2022/08/08 06:26:19;;;;;;;4.07;2.97;;;15.80;99.90;;;;;;5027103;28;20306;-89
2022/08/08 06:28:54;;;;;;;4.63;2.90;;;15.90;99.90;;;;;;5022723;28;20298;-89
2022/08/08 06:31:21;;;;;;;2.90;2.60;;;15.80;99.90;;;;;;5022601;28;20220;-89
2022/08/08 06:33:57;;;;;;;2.73;2.30;;;15.90;99.90;;;;;;5021763;28;20921;-93
2022/08/08 06:36:30;;;;;;;2.67;2.30;;;16.00;99.90;;;;;;5012657;28;20697;-90
2022/08/08 06:38:59;;;;;;;4.27;2.30;;;16.10;99.90;;;;;;5036285;28;20215;-89
2022/08/08 06:41:30;;;;;;;2.47;2.10;;;16.20;99.90;;;;;;5025113;28;20714;-89
2022/08/08 06:44:03;;;;;;;3.43;2.30;;;16.20;99.90;;;;;;5025714;28;20860;-90
2022/08/08 06:46:34;;;;;;;3.93;2.23;;;16.30;99.90;;;;;;5020098;28;20342;-92
2022/08/08 06:49:01;;;;;;;2.40;1.77;;;16.40;99.90;;;;;;5023814;28;20947;-91
2022/08/08 06:51:28;;;;;;;3.13;2.30;;;16.50;99.90;;;;;;5015633;28;22393;-91
2022/08/08 06:53:59;;;;;;;3.37;2.03;;;16.60;99.90;;;;;;5020700;28;20315;-90
2022/08/08 06:56:34;;;;;;;2.13;1.93;;;16.70;99.90;;;;;;5019950;28;20224;-90
2022/08/08 06:59:02;;;;;;;2.90;2.47;;;16.80;99.90;;;;;;5026440;28;20659;-89
2022/08/08 07:01:34;;;;;;;3.37;1.80;;;16.90;99.80;;;;;;5012782;28;20228;-90
2022/08/08 07:04:10;;;;;;;4.67;1.97;;;17.00;99.70;;;;;;5030094;28;20251;-90
2022/08/08 07:06:41;;;;;;;2.05;1.70;;;17.10;99.10;;;;;;5024990;28;20219;-90
2022/08/08 07:09:14;;;;;;;3.30;1.70;;;17.20;98.80;;;;;;5021260;28;20303;-91
2022/08/08 07:11:49;;;;;;;2.40;1.67;;;17.30;98.40;;;;;;5011869;28;20254;-90
2022/08/08 07:14:18;;;;;;;2.25;1.50;;;17.40;98.10;;;;;;5018665;28;20579;-90
2022/08/08 07:16:53;;;;;;;2.75;1.52;;;17.50;97.70;;;;;;5020866;28;20870;-90
2022/08/08 07:19:29;;;;;;;4.50;1.65;;;17.70;97.60;;;;;;5043415;28;20220;-90
2022/08/08 07:22:02;;;;;;;2.88;1.50;;;17.90;97.60;;;;;;5039214;28;20216;-90
2022/08/08 07:24:36;;;;;;;4.38;1.48;;;18.30;97.80;;;;;;5016053;28;20789;-92
2022/08/08 07:27:08;;;;;;;3.30;1.50;;;18.90;97.00;;;;;;5022121;28;20262;-91
2022/08/08 07:29:36;;;;;;;2.05;1.67;;;19.50;96.90;;;;;;5024294;28;20299;-91
2022/08/08 07:32:06;;;;;;;2.38;1.38;;;20.20;96.20;;;;;;5030188;28;20307;-90
2022/08/08 07:34:34;;;;;;;2.42;1.67;;;21.00;95.60;;;;;;5023296;28;20230;-91
2022/08/08 07:37:07;;;;;;;3.40;1.30;;;21.80;94.90;;;;;;5022097;28;20285;-90
2022/08/08 07:39:35;;;;;;;1.80;1.42;;;22.60;93.90;;;;;;5020452;28;20227;-92
2022/08/08 07:42:06;;;;;;;1.98;1.55;;;23.40;92.30;;;;;;5022099;28;20233;-92
2022/08/08 07:44:35;;;;;;;3.30;1.80;;;24.10;91.90;;;;;;5019957;28;20221;-90
2022/08/08 07:47:02;;;;;;;5.03;1.98;;;24.70;91.10;;;;;;5022482;28;20223;-90
2022/08/08 07:49:29;;;;;;;5.07;2.03;;;25.30;89.30;;;;;;5035874;28;21170;-92
2022/08/08 07:52:01;;;;;;;2.78;1.73;;;25.70;87.80;;;;;;5041430;28;20221;-91
2022/08/08 07:54:33;;;;;;;4.22;2.35;;;26.10;85.30;;;;;;5041374;28;20224;-91
2022/08/08 07:57:19;;;;;;;2.63;1.77;;;26.50;84.00;;;;;;5035265;28;20218;-90
2022/08/08 07:59:58;;;;;;;2.05;1.63;;;26.90;82.00;;;;;;5042044;28;20222;-90
2022/08/08 08:02:37;;;;;;;2.33;1.55;;;27.40;80.30;;;;;;5060222;22;20223;-90
2022/08/08 08:05:10;;;;;;;3.78;1.50;;;27.90;78.50;;;;;;5038992;28;20273;-91
2022/08/08 08:07:38;;;;;;;2.25;1.38;;;28.30;76.30;;;;;;5044408;28;20251;-91
2022/08/08 08:10:09;;;;;;;4.47;1.80;;;28.60;76.00;;;;;;5041094;28;20794;-90
2022/08/08 08:12:42;;;;;;;3.53;1.52;;;29.00;72.10;;;;;;5042249;28;20315;-91
2022/08/08 08:15:12;;;;;;;4.30;1.88;;;29.20;71.80;;;;;;5024407;28;20282;-90
2022/08/08 08:17:45;;;;;;;2.92;2.05;;;29.50;70.50;;;;;;5019250;28;20897;-91
2022/08/08 08:20:15;;;;;;;2.95;1.83;;;29.70;68.90;;;;;;5027871;28;20220;-91
2022/08/08 08:22:41;;;;;;;2.03;1.45;;;29.90;67.10;;;;;;5036740;28;20307;-92
2022/08/08 08:25:09;;;;;;;3.28;1.45;;;30.20;67.80;;;;;;5019405;28;20229;-90
2022/08/08 08:27:40;;;;;;;3.05;0.95;;;30.60;66.20;;;;;;5027796;28;20215;-91
2022/08/08 08:30:07;;;;;;;2.80;1.50;;;30.90;62.60;;;;;;5044052;28;20231;-91
2022/08/08 08:32:35;;;;;;;2.25;1.20;;;31.30;62.50;;;;;;5026107;28;20224;-91
2022/08/08 08:35:03;;;;;;;1.52;1.33;;;31.60;61.00;;;;;;5006944;28;20734;-91
2022/08/08 08:37:30;;;;;;;2.08;1.40;;;31.80;58.50;;;;;;5020778;28;20308;-91
2022/08/08 08:39:57;;;;;;;3.53;1.45;;;32.00;58.40;;;;;;5018647;28;20748;-90
2022/08/08 08:42:25;;;;;;;2.65;1.52;;;32.10;57.10;;;;;;5017937;28;20290;-90
2022/08/08 08:44:54;;;;;;;2.67;1.63;;;32.20;56.80;;;;;;5025412;28;20319;-91
2022/08/08 08:47:22;;;;;;;2.03;1.23;;;32.40;56.30;;;;;;5029089;28;20286;-91
2022/08/08 08:49:48;;;;;;;1.98;1.52;;;32.50;55.50;;;;;;5026970;28;20243;-90
2022/08/08 08:52:17;;;;;;;5.35;1.55;;;32.70;54.80;;;;;;5025051;28;21008;-91
2022/08/08 08:54:49;;;;;;;2.05;1.38;;;32.90;53.70;;;;;;5026550;28;20641;-91
2022/08/08 08:57:16;;;;;;;2.85;1.38;;;33.10;54.00;;;;;;5022270;28;20407;-91
2022/08/08 08:59:47;;;;;;;2.40;1.40;;;33.30;53.20;;;;;;5045005;28;20307;-90
2022/08/08 09:02:20;;;;;;;2.13;1.45;;;33.50;52.70;;;;;;5027986;28;20228;-91
2022/08/08 09:04:52;;;;;;;1.77;1.45;;;33.60;52.10;;;;;;5025971;28;21006;-90
2022/08/08 09:07:24;;;;;;;2.88;1.63;;;33.60;51.80;;;;;;5027355;28;20739;-91
2022/08/08 09:09:54;;;;;;;2.92;1.33;;;33.80;51.40;;;;;;5028888;28;20315;-91
2022/08/08 09:12:26;;;;;;;1.65;1.27;;;33.80;50.50;;;;;;5027817;28;20767;-91
2022/08/08 09:14:55;;;;;;;2.53;1.55;;;33.90;49.80;;;;;;5028798;28;20829;-91
2022/08/08 09:17:25;;;;;;;1.95;1.40;;;34.00;49.80;;;;;;5027030;28;20231;-90
2022/08/08 09:19:57;;;;;;;4.13;1.38;;;34.20;49.00;;;;;;5029123;28;20223;-91
2022/08/08 09:22:25;;;;;;;3.22;1.63;;;34.30;48.60;;;;;;5021965;28;20635;-91
2022/08/08 09:24:54;;;;;;;2.67;1.80;;;34.50;47.60;;;;;;5026952;28;20218;-91
2022/08/08 09:27:21;;;;;;;3.33;1.70;;;34.60;46.90;;;;;;5046482;28;20220;-92
2022/08/08 09:29:53;;;;;;;3.75;1.50;;;34.60;47.50;;;;;;5025733;28;20707;-91
2022/08/08 09:32:36;;;;;;;2.25;1.45;;;34.70;47.50;;;;;;5034968;23;20798;-92
2022/08/08 09:35:05;;;;;;;3.30;1.30;;;34.80;46.20;;;;;;5029847;28;20228;-91
2022/08/08 09:37:43;;;;;;;1.95;1.15;;;35.10;46.00;;;;;;5024245;28;20244;-91
2022/08/08 09:40:11;;;;;;;3.08;1.30;;;35.20;46.00;;;;;;5017160;28;20220;-91
2022/08/08 09:42:42;;;;;;;1.98;1.50;;;35.20;46.00;;;;;;5045158;28;20285;-91
2022/08/08 09:45:11;;;;;;;4.10;1.48;;;35.20;46.40;;;;;;5022383;28;20344;-91
2022/08/08 09:50:30;;;;;;;2.28;1.58;;;34.40;46.90;;;;;;5020277;28;20904;-91
2022/08/08 09:53:00;;;;;;;4.13;1.70;;;33.90;47.80;;;;;;5031509;28;20227;-92
2022/08/08 09:55:29;;;;;;;1.60;1.40;;;33.30;48.60;;;;;;5028119;28;20297;-91
2022/08/08 09:58:05;;;;;;;4.05;1.83;;;32.60;48.60;;;;;;5046856;28;20216;-91
2022/08/08 10:00:35;;;;;;;3.35;1.80;;;31.90;49.40;;;;;;5021109;28;20282;-90
2022/08/08 10:03:05;;;;;;;2.70;1.50;;;31.10;50.40;;;;;;5035528;28;20598;-91
2022/08/08 10:05:37;;;;;;;5.63;1.73;;;30.40;51.30;;;;;;5015563;28;20282;-90
2022/08/08 10:08:05;;;;;;;3.67;1.40;;;29.70;52.50;;;;;;5023408;28;20389;-90
2022/08/08 10:10:34;;;;;;;5.65;2.00;;;29.00;53.40;;;;;;5020687;28;20229;-91
2022/08/08 10:13:15;;;;;;;1.80;1.42;;;28.40;53.80;;;;;;5038717;28;20281;-92
2022/08/08 10:15:47;;;;;;;2.05;1.40;;;27.90;54.90;;;;;;5040061;28;20327;-91
2022/08/08 10:21:18;;;;;;;2.75;1.60;;;27.10;56.80;;;;;;5007026;28;20234;-94
2022/08/08 10:23:46;;;;;;;2.08;1.40;;;26.80;57.20;;;;;;5034875;28;20278;-92
2022/08/08 10:26:17;;;;;;;4.68;1.67;;;26.70;57.60;;;;;;5022923;28;20294;-92
2022/08/08 10:29:01;;;;;;;3.25;1.55;;;26.50;57.80;;;;;;5030429;28;20304;-93
2022/08/08 10:34:51;;;;;;;5.80;2.03;;;26.20;58.40;;;;;;4956909;28;20219;-93
2022/08/08 10:37:24;;;;;;;4.85;1.73;;;26.10;58.70;;;;;;5011016;28;20378;-94
2022/08/08 10:39:53;;;;;;;3.42;1.55;;;26.10;58.20;;;;;;5035789;28;20736;-92
2022/08/08 10:42:22;;;;;;;2.13;1.45;;;26.10;58.30;;;;;;5003724;28;20263;-95
2022/08/08 10:44:49;;;;;;;2.25;1.27;;;26.10;58.60;;;;;;5027123;28;20309;-93
2022/08/08 10:47:17;;;;;;;2.88;1.45;;;26.10;58.60;;;;;;5020009;28;20224;-92
2022/08/08 10:49:55;;;;;;;3.65;1.63;;;26.20;58.40;;;;;;5007746;28;20217;-92
2022/08/08 10:52:24;;;;;;;3.10;1.48;;;26.30;58.00;;;;;;5024456;28;20260;-94
2022/08/08 10:54:57;;;;;;;5.25;1.48;;;26.40;58.30;;;;;;5021547;28;20220;-96
2022/08/08 10:57:30;;;;;;;1.90;1.27;;;26.60;58.50;;;;;;5016029;28;20232;-95
2022/08/08 10:59:59;;;;;;;4.07;1.35;;;26.80;58.30;;;;;;5036711;28;20692;-95
2022/08/08 11:02:27;;;;;;;4.32;1.70;;;26.90;57.80;;;;;;5045123;23;20227;-94
2022/08/08 11:04:57;;;;;;;3.83;1.67;;;27.00;57.60;;;;;;5056852;28;20220;-95
2022/08/08 11:07:29;;;;;;;4.28;1.80;;;27.10;57.10;;;;;;5045557;28;20259;-95
2022/08/08 11:10:00;;;;;;;3.97;1.70;;;27.20;56.70;;;;;;5038515;28;20407;-90
2022/08/08 11:12:29;;;;;;;2.58;1.80;;;27.20;56.40;;;;;;5075506;28;20230;-92
2022/08/08 11:14:58;;;;;;;2.55;1.42;;;27.30;56.40;;;;;;5064528;28;20302;-91
2022/08/08 11:17:30;;;;;;;3.08;1.40;;;27.40;56.20;;;;;;5059576;28;20222;-95
2022/08/08 11:19:59;;;;;;;4.22;2.00;;;27.60;56.70;;;;;;5063692;28;20219;-93
2022/08/08 11:22:29;;;;;;;2.88;1.50;;;27.70;56.20;;;;;;5062554;28;20454;-92
2022/08/08 11:25:00;;;;;;;1.40;1.30;;;27.90;56.10;;;;;;5084011;28;20211;-93
2022/08/08 11:27:31;;;;;;;2.55;1.50;;;28.10;55.60;;;;;;5064047;28;20309;-93
2022/08/08 11:30:00;;;;;;;1.95;1.27;;;28.20;54.70;;;;;;5079993;28;20632;-93
2022/08/08 11:32:30;;;;;;;2.88;1.45;;;28.30;54.40;;;;;;5053113;28;20235;-93
2022/08/08 11:35:04;;;;;;;3.15;1.38;;;28.40;54.30;;;;;;5058617;28;20265;-91
2022/08/08 11:37:32;;;;;;;4.68;1.80;;;28.50;53.50;;;;;;5083048;28;20422;-92
2022/08/08 11:40:00;;;;;;;1.90;1.17;;;28.60;53.50;;;;;;5076025;28;20225;-91
2022/08/08 11:42:27;;;;;;;3.08;1.33;;;28.60;53.60;;;;;;5081258;28;20298;-91
2022/08/08 11:44:56;;;;;;;3.03;1.70;;;28.60;53.60;;;;;;5059769;28;20311;-91
2022/08/08 11:47:26;;;;;;;1.98;1.20;;;28.70;53.90;;;;;;5063924;28;20309;-92
2022/08/08 11:49:54;;;;;;;2.17;1.42;;;28.70;54.40;;;;;;5053733;28;20238;-92
2022/08/08 11:52:25;;;;;;;2.45;1.20;;;28.80;53.80;;;;;;5074568;28;20223;-92
2022/08/08 11:54:54;;;;;;;2.53;1.20;;;28.90;52.80;;;;;;5074149;28;20281;-92
2022/08/08 11:57:27;;;;;;;2.08;1.20;;;29.00;52.40;;;;;;5074899;28;20312;-92
2022/08/08 11:59:56;;;;;;;2.03;1.27;;;29.10;52.10;;;;;;5082821;28;20246;-92
2022/08/08 12:02:25;;;;;;;3.00;1.27;;;29.10;52.10;;;;;;5063672;28;20224;-91
2022/08/08 12:05:08;;;;;;;2.20;1.23;;;29.10;51.10;;;;;;5060674;28;20238;-92
2022/08/08 12:07:47;;;;;;;2.40;1.30;;;29.10;51.00;;;;;;5079196;28;20233;-92
2022/08/08 12:10:18;;;;;;;1.58;1.13;;;29.20;51.90;;;;;;5078244;28;20333;-92
2022/08/08 12:12:46;;;;;;;3.15;1.08;;;29.20;51.70;;;;;;5058678;28;20314;-91
2022/08/08 12:15:24;;;;;;;2.33;1.00;;;29.30;51.00;;;;;;5059515;28;20222;-91
2022/08/08 12:17:51;;;;;;;2.40;1.40;;;29.40;51.70;;;;;;5061935;28;20223;-91
2022/08/08 12:20:18;;;;;;;1.73;1.10;;;29.40;51.70;;;;;;5061167;28;20215;-94
2022/08/08 12:22:51;;;;;;;2.75;1.17;;;29.50;51.40;;;;;;5079289;28;20302;-91
2022/08/08 12:25:23;;;;;;;2.20;1.40;;;29.40;51.40;;;;;;5057274;28;20314;-92
2022/08/08 12:27:51;;;;;;;2.95;1.10;;;29.50;51.80;;;;;;5050910;28;20325;-91
2022/08/08 12:30:28;;;;;;;1.90;0.82;;;29.50;50.80;;;;;;5063234;28;20218;-92
2022/08/08 12:32:58;;;;;;;3.17;1.00;;;29.60;50.80;;;;;;5069778;28;20219;-92
2022/08/08 12:35:27;;;;;;;4.22;1.20;;;29.70;50.00;;;;;;5071264;28;20227;-92
2022/08/08 12:38:06;;;;;;;2.00;0.80;;;29.90;49.80;;;;;;5059371;28;20557;-92
2022/08/08 12:40:38;;;;;;;2.05;0.80;;;30.00;49.60;;;;;;5063313;28;20552;-93
2022/08/08 12:43:04;;;;;;;1.35;0.70;;;30.20;48.70;;;;;;5078308;28;20227;-92
2022/08/08 12:45:36;;;;;;;2.88;0.98;;;30.40;49.60;;;;;;5062289;28;20221;-91
2022/08/08 12:48:08;;;;;;;1.25;0.88;;;30.70;49.30;;;;;;5063428;28;20223;-92
2022/08/08 12:50:41;;;;;;;2.53;1.05;;;30.90;49.20;;;;;;5076182;28;20287;-92
2022/08/08 12:53:24;;;;;;;3.35;1.17;;;31.10;48.40;;;;;;5075632;28;20215;-93
2022/08/08 12:55:56;;;;;;;1.52;0.90;;;31.20;48.80;;;;;;5057586;28;20238;-92
2022/08/08 12:58:23;;;;;;;3.78;1.10;;;31.30;49.20;;;;;;5075050;28;20242;-92
2022/08/08 13:00:50;;;;;;;2.33;1.10;;;31.40;48.80;;;;;;5072095;28;20219;-92
2022/08/08 13:03:27;;;;;;;2.45;1.00;;;31.40;48.60;;;;;;5062663;28;20250;-91
2022/08/08 13:06:08;;;;;;;1.25;0.90;;;31.50;48.50;;;;;;5066657;28;20246;-91
2022/08/08 13:08:41;;;;;;;4.65;1.17;;;31.50;48.50;;;;;;5085389;28;20519;-91
2022/08/08 13:11:18;;;;;;;4.05;1.15;;;31.50;48.00;;;;;;5077322;28;20912;-93
2022/08/08 13:13:53;;;;;;;2.45;1.13;;;31.40;47.90;;;;;;5067870;28;20215;-90
2022/08/08 13:16:20;;;;;;;2.60;1.02;;;31.40;48.20;;;;;;5081671;28;20329;-91
2022/08/08 13:18:49;;;;;;;3.17;1.08;;;31.20;48.00;;;;;;5080703;28;20230;-94
2022/08/08 13:21:18;;;;;;;2.70;1.30;;;31.00;48.50;;;;;;5081849;28;20228;-94
2022/08/08 13:23:49;;;;;;;2.83;1.08;;;30.80;48.00;;;;;;5067928;28;20218;-94
2022/08/08 13:26:15;;;;;;;2.55;1.20;;;30.60;48.00;;;;;;5083996;28;20242;-92
2022/08/08 13:28:45;;;;;;;3.70;0.90;;;30.40;48.40;;;;;;5056986;28;21958;-92
2022/08/08 13:31:17;;;;;;;2.90;0.95;;;30.20;48.60;;;;;;5061341;28;20250;-92
2022/08/08 13:33:59;;;;;;;2.20;0.90;;;30.00;49.00;;;;;;5076488;28;20216;-92
2022/08/08 13:36:28;;;;;;;2.97;0.95;;;29.80;48.80;;;;;;5083248;28;20280;-93
2022/08/08 13:38:58;;;;;;;2.17;1.15;;;29.80;49.60;;;;;;5063689;28;20227;-92
2022/08/08 13:41:35;;;;;;;2.33;1.08;;;29.70;49.10;;;;;;5060452;28;20215;-92